Stephen Reinauer — WCA3763 — position and weather

sailwx.info

Track history (hours):
 
Tides and Currents Weather Stations Pressure Air Temp Water Temp Dewpoint Dewpoint Depression Visibility Wind Speed Wind Dir Waves Ship Positions

Stephen Reinauer

Owner: REINAUER, HAROLD A, STATEN ISLAND, NY. More information available from US FCC via Universal Licensing System and Coast Guard Vessel Documentation Center.

Last reported at 2017-Dec-11 17:00 UTC. Time now 2017-Dec-12 04:14 UTC.
Position N 40°38' W 074°12'.

Length 33 m.

Type: Tanker. MMSI: 366516370.

Date/timePositionNaut miles runAvg speedWind from/ knotsBaromVisibWave heightAir tempDewpointWater temp
2017-Dec-11 17:00N 40°38' W 074°12'0 0.0
2017-Dec-11 16:30N 40°38' W 074°12'0 0.0
2017-Dec-11 16:00N 40°38' W 074°12'2 3.1
2017-Dec-11 15:30N 40°39' W 074°10'510.8
2017-Dec-11 15:00N 40°40' W 074°03'1 2.7
2017-Dec-11 14:30N 40°40' W 074°01'0 0.0
2017-Dec-11 14:00N 40°40' W 074°01'0 0.0
2017-Dec-11 13:30N 40°40' W 074°01'0 0.0
2017-Dec-11 13:00N 40°40' W 074°01'0 0.0
2017-Dec-11 12:30N 40°40' W 074°01'0 0.0
2017-Dec-11 12:00N 40°40' W 074°01'0 0.0
2017-Dec-11 11:30N 40°40' W 074°01'0 0.0
2017-Dec-11 11:00N 40°40' W 074°01'0 0.0
2017-Dec-11 10:30N 40°40' W 074°01'0 0.0
2017-Dec-11 10:00N 40°40' W 074°01'0 0.0
2017-Dec-11 09:30N 40°40' W 074°01'0 0.0
2017-Dec-11 09:00N 40°40' W 074°01'0 0.0
2017-Dec-11 08:30N 40°40' W 074°01'0 0.0
2017-Dec-11 08:00N 40°40' W 074°01'0 0.0
2017-Dec-11 07:30N 40°40' W 074°01'0 0.0
2017-Dec-11 07:00N 40°40' W 074°01'0 0.0
2017-Dec-11 06:30N 40°40' W 074°01'0 0.0
2017-Dec-11 06:00N 40°40' W 074°01'0 0.0
2017-Dec-11 05:30N 40°40' W 074°01'0 0.0
2017-Dec-11 05:00N 40°40' W 074°01'0 0.0
2017-Dec-11 04:30N 40°40' W 074°01'0 0.0
2017-Dec-11 04:00N 40°40' W 074°01'0 0.0
2017-Dec-11 03:30N 40°40' W 074°01'0 0.0
2017-Dec-11 03:00N 40°40' W 074°01'0 0.0
2017-Dec-11 02:30N 40°40' W 074°01'0 0.0
2017-Dec-11 02:00N 40°40' W 074°01'0 0.0
2017-Dec-11 01:30N 40°40' W 074°01'3 5.9
2017-Dec-11 01:00N 40°39' W 074°05'2 4.8
2017-Dec-11 00:30N 40°38' W 074°08'0 0.0
2017-Dec-11 00:00N 40°38' W 074°08'3 5.8
2017-Dec-10 23:30N 40°39' W 074°04'3 6.8
2017-Dec-10 23:00N 40°36' W 074°02'4 7.9
2017-Dec-10 22:26N 40°40' W 074°01'0 0.0
2017-Dec-10 21:59N 40°40' W 074°01'0 0.0
2017-Dec-10 21:29N 40°40' W 074°01'0 0.0
2017-Dec-10 20:59N 40°40' W 074°01'0 0.0
2017-Dec-10 20:29N 40°40' W 074°01'0 0.0
2017-Dec-10 19:59N 40°40' W 074°01'0 0.0
2017-Dec-10 19:29N 40°40' W 074°01'0 0.0
2017-Dec-10 18:59N 40°40' W 074°01'0 0.0
2017-Dec-10 18:29N 40°40' W 074°01'0 0.0
2017-Dec-10 17:59N 40°40' W 074°01'0 0.0
2017-Dec-10 17:29N 40°40' W 074°01'0 0.0
2017-Dec-10 16:59N 40°40' W 074°01'0 0.0
2017-Dec-10 16:29N 40°40' W 074°01'0 0.0
2017-Dec-10 15:59N 40°40' W 074°01'0 0.0
2017-Dec-10 15:29N 40°40' W 074°01'0 0.0
2017-Dec-10 14:59N 40°40' W 074°01'0 0.0
2017-Dec-10 14:29N 40°40' W 074°01'0 0.0
2017-Dec-10 13:59N 40°40' W 074°01'0 0.0
2017-Dec-10 13:29N 40°40' W 074°01'0 0.0
2017-Dec-10 12:59N 40°40' W 074°01'0 0.0
2017-Dec-10 12:29N 40°40' W 074°01'0 0.0
2017-Dec-10 11:59N 40°40' W 074°01'0 0.0
2017-Dec-10 11:29N 40°40' W 074°01'0 0.0
2017-Dec-10 10:59N 40°40' W 074°01'0 0.0
2017-Dec-10 10:29N 40°40' W 074°01'0 0.0
2017-Dec-10 09:59N 40°40' W 074°01'0 0.0
2017-Dec-10 09:29N 40°40' W 074°01'0 0.0
2017-Dec-10 08:56N 40°40' W 074°01'0 0.0
2017-Dec-10 08:29N 40°40' W 074°01'0 0.3
2017-Dec-10 08:01N 40°40' W 074°01'1 1.2
2017-Dec-10 07:28N 40°40' W 074°02'0 0.0
2017-Dec-10 06:58N 40°40' W 074°02'0 0.0
2017-Dec-10 06:28N 40°40' W 074°02'0 0.0
2017-Dec-10 05:58N 40°40' W 074°02'0 0.1
2017-Dec-10 05:28N 40°40' W 074°02'0 1.0
2017-Dec-10 05:00N 40°40' W 074°01'0 0.8
2017-Dec-10 04:30N 40°40' W 074°01'0 0.0
2017-Dec-10 04:00N 40°40' W 074°01'0 0.0
2017-Dec-10 03:30N 40°40' W 074°01'0 0.0
2017-Dec-10 03:00N 40°40' W 074°01'0 0.0
2017-Dec-10 02:30N 40°40' W 074°01'0 0.0
2017-Dec-10 02:00N 40°40' W 074°01'0 0.0
2017-Dec-10 01:30N 40°40' W 074°01'0 0.0
2017-Dec-10 01:00N 40°40' W 074°01'0 0.0
2017-Dec-10 00:30N 40°40' W 074°01'0 0.0
2017-Dec-10 00:00N 40°40' W 074°01'0 0.0
2017-Dec-09 23:30N 40°40' W 074°01'0 0.0
2017-Dec-09 23:00N 40°40' W 074°01'0 0.0
2017-Dec-09 22:30N 40°40' W 074°01'0 0.0
2017-Dec-09 22:00N 40°40' W 074°01'0 0.0
2017-Dec-09 21:30N 40°40' W 074°01'0 0.0
2017-Dec-09 21:00N 40°40' W 074°01'0 0.0
2017-Dec-09 20:30N 40°40' W 074°01'0 0.0
2017-Dec-09 20:00N 40°40' W 074°01'0 0.0
2017-Dec-09 19:30N 40°40' W 074°01'0 0.0
2017-Dec-09 19:00N 40°40' W 074°01'0 0.0
2017-Dec-09 18:30N 40°40' W 074°01'0 0.0
2017-Dec-09 18:00N 40°40' W 074°01'0 0.0
2017-Dec-09 17:30N 40°40' W 074°01'0 0.0
2017-Dec-09 17:00N 40°40' W 074°01'0 0.0
2017-Dec-09 16:30N 40°40' W 074°01'0 0.0
2017-Dec-09 16:00N 40°40' W 074°01'0 0.0
2017-Dec-09 15:30N 40°40' W 074°01'0 0.0
2017-Dec-09 15:00N 40°40' W 074°01'0 0.0
2017-Dec-09 14:30N 40°40' W 074°01'0 0.0
2017-Dec-09 14:00N 40°40' W 074°01'0 0.0
2017-Dec-09 13:30N 40°40' W 074°01'0 0.0
2017-Dec-09 13:00N 40°40' W 074°01'0 0.0
2017-Dec-09 12:30N 40°40' W 074°01'0 0.0
2017-Dec-09 12:00N 40°40' W 074°01'0 0.0
2017-Dec-09 11:30N 40°40' W 074°01'0 0.0
2017-Dec-09 11:00N 40°40' W 074°01'0 0.0
2017-Dec-09 10:30N 40°40' W 074°01'0 0.0
2017-Dec-09 10:00N 40°40' W 074°01'0 0.0
2017-Dec-09 09:30N 40°40' W 074°01'0 0.0
2017-Dec-09 09:00N 40°40' W 074°01'0 0.0
2017-Dec-09 08:30N 40°40' W 074°01'0 0.0
2017-Dec-09 08:00N 40°40' W 074°01'0 0.0
2017-Dec-09 07:31N 40°40' W 074°01'0 0.2
2017-Dec-09 07:01N 40°40' W 074°01'1 1.5
2017-Dec-09 06:31N 40°41' W 074°02'4 7.2
2017-Dec-09 06:01N 40°43' W 073°58'3 6.5
2017-Dec-09 05:30N 40°46' W 073°57'2 4.9
2017-Dec-09 05:00N 40°48' W 073°54'3 6.6
2017-Dec-09 04:29N 40°48' W 073°50'3 5.6
2017-Dec-09 04:00N 40°50' W 073°47'4 8.1
2017-Dec-09 03:28N 40°53' W 073°43'4 0.2
2017-Dec-08 08:03N 40°55' W 073°38'1 8.4
2017-Dec-08 07:57N 40°54' W 073°39'4 8.3
2017-Dec-08 07:30N 40°53' W 073°44'4 8.2
2017-Dec-08 07:00N 40°49' W 073°47'3 6.6
2017-Dec-08 06:30N 40°48' W 073°51'4 7.6
2017-Dec-08 06:00N 40°47' W 073°56'4 7.8
2017-Dec-08 05:30N 40°43' W 073°58'5 9.6
2017-Dec-08 05:00N 40°40' W 074°03'4 8.1
2017-Dec-08 04:30N 40°39' W 074°08'3 5.3
2017-Dec-08 04:00N 40°39' W 074°11'2 4.9
2017-Dec-08 03:30N 40°36' W 074°12'3 5.5
2017-Dec-08 02:56N 40°33' W 074°14'1 1.2
2017-Dec-08 02:29N 40°33' W 074°14'0 0.1
2017-Dec-08 01:58N 40°34' W 074°14'0 0.0
2017-Dec-08 01:27N 40°34' W 074°14'0 0.0
2017-Dec-08 00:58N 40°34' W 074°14'0 0.0
2017-Dec-08 00:30N 40°34' W 074°14'0 0.0
2017-Dec-08 00:00N 40°34' W 074°14'0 0.0
2017-Dec-07 23:30N 40°34' W 074°14'0 0.0
2017-Dec-07 22:55N 40°34' W 074°14'0 0.0
2017-Dec-07 22:23N 40°34' W 074°14'0 0.0
2017-Dec-07 21:58N 40°34' W 074°14'0 0.0
2017-Dec-07 17:42N 40°34' W 074°14'1 5.4
2017-Dec-07 17:27N 40°32' W 074°15'1 3.0
2017-Dec-07 17:00N 40°34' W 074°14'0 0.0
2017-Dec-07 16:23N 40°34' W 074°14'0 0.0
2017-Dec-07 15:54N 40°34' W 074°14'0 0.0
2017-Dec-07 13:03N 40°34' W 074°14'0 0.0
2017-Dec-07 12:59N 40°34' W 074°14'0 0.0
2017-Dec-07 12:29N 40°34' W 074°14'0 0.0
2017-Dec-07 12:00N 40°34' W 074°14'0 0.0
2017-Dec-07 11:30N 40°34' W 074°14'0 0.0
2017-Dec-07 11:00N 40°34' W 074°14'0 0.0
2017-Dec-07 10:30N 40°34' W 074°14'0 0.0
2017-Dec-07 10:00N 40°34' W 074°14'0 0.0
2017-Dec-07 09:29N 40°34' W 074°14'0 0.0
2017-Dec-07 09:00N 40°34' W 074°14'0 0.0
2017-Dec-07 08:30N 40°34' W 074°14'0 0.0
2017-Dec-07 07:58N 40°34' W 074°14'0 0.0
2017-Dec-07 07:30N 40°34' W 074°14'0 0.0
2017-Dec-07 07:00N 40°34' W 074°14'0 0.0
2017-Dec-07 06:30N 40°34' W 074°14'0 0.0
2017-Dec-07 05:59N 40°34' W 074°14'0 0.0
2017-Dec-07 05:28N 40°34' W 074°14'0 0.0
2017-Dec-07 04:58N 40°34' W 074°14'0 0.0
2017-Dec-07 04:30N 40°34' W 074°14'0 0.0
2017-Dec-07 03:59N 40°34' W 074°14'0 0.0
2017-Dec-07 03:30N 40°34' W 074°14'0 0.0
2017-Dec-07 03:00N 40°34' W 074°14'0 0.0
2017-Dec-07 02:30N 40°34' W 074°14'0 0.0
2017-Dec-07 02:00N 40°34' W 074°14'0 0.0
2017-Dec-07 01:30N 40°34' W 074°14'0 0.0
2017-Dec-07 01:00N 40°34' W 074°14'0 0.0
2017-Dec-07 00:29N 40°34' W 074°14'0 0.0
2017-Dec-07 00:00N 40°34' W 074°14'0 0.0
2017-Dec-06 23:29N 40°34' W 074°14'0 0.0
2017-Dec-06 22:53N 40°34' W 074°14'0 0.0
2017-Dec-06 22:21N 40°34' W 074°14'3 6.4
2017-Dec-06 21:55N 40°36' W 074°12'3 8.3
2017-Dec-06 21:30N 40°39' W 074°10'2 3.9
2017-Dec-06 21:00N 40°38' W 074°08'  
2017-Dec-04 10:30N 40°40' W 074°01'0 0.0
2017-Dec-04 10:00N 40°40' W 074°01'0 0.0
2017-Dec-04 09:30N 40°40' W 074°01'0 0.0
2017-Dec-04 09:00N 40°40' W 074°01'0 0.0
2017-Dec-04 08:30N 40°40' W 074°01'0 0.0
2017-Dec-04 08:00N 40°40' W 074°01'0 0.0
2017-Dec-04 07:30N 40°40' W 074°01'0 0.0
2017-Dec-04 07:00N 40°40' W 074°01'0 0.0
2017-Dec-04 06:30N 40°40' W 074°01'0 0.0
2017-Dec-04 06:01N 40°40' W 074°01'0 0.0
2017-Dec-04 05:30N 40°40' W 074°01'0 0.0
2017-Dec-04 05:00N 40°40' W 074°01'0 0.0
2017-Dec-04 04:30N 40°40' W 074°01'0 0.0
2017-Dec-04 04:00N 40°40' W 074°01'0 0.0
2017-Dec-04 03:30N 40°40' W 074°01'0 0.0
2017-Dec-04 03:00N 40°40' W 074°01'0 0.2
2017-Dec-04 02:30N 40°40' W 074°01'1 3.0
2017-Dec-04 02:00N 40°41' W 074°02'4 7.3
2017-Dec-04 01:30N 40°45' W 074°01'3 6.8
2017-Dec-04 01:00N 40°48' W 073°59'3 6.3
2017-Dec-04 00:30N 40°51' W 073°57'4 7.5
2017-Dec-03 23:59N 40°55' W 073°55'  
Track history (hours):
 
Tides and Currents Weather Stations Pressure Air Temp Water Temp Dewpoint Dewpoint Depression Visibility Wind Speed Wind Dir Waves Ship Positions

Stephen Reinauer

Owner: REINAUER, HAROLD A, STATEN ISLAND, NY. More information available from US FCC via Universal Licensing System and Coast Guard Vessel Documentation Center.

Last reported at 2017-Dec-11 17:00 UTC. Time now 2017-Dec-12 04:14 UTC.
Position N 40°38' W 074°12'.

Length 33 m.

Type: Tanker. MMSI: 366516370.

Date/timePositionNaut miles runAvg speedWind from/ knotsBaromVisibWave heightAir tempDewpointWater temp
2017-Dec-11 17:00N 40°38' W 074°12'0 0.0
2017-Dec-11 16:30N 40°38' W 074°12'0 0.0
2017-Dec-11 16:00N 40°38' W 074°12'2 3.1
2017-Dec-11 15:30N 40°39' W 074°10'510.8
2017-Dec-11 15:00N 40°40' W 074°03'1 2.7
2017-Dec-11 14:30N 40°40' W 074°01'0 0.0
2017-Dec-11 14:00N 40°40' W 074°01'0 0.0
2017-Dec-11 13:30N 40°40' W 074°01'0 0.0
2017-Dec-11 13:00N 40°40' W 074°01'0 0.0
2017-Dec-11 12:30N 40°40' W 074°01'0 0.0
2017-Dec-11 12:00N 40°40' W 074°01'0 0.0
2017-Dec-11 11:30N 40°40' W 074°01'0 0.0
2017-Dec-11 11:00N 40°40' W 074°01'0 0.0
2017-Dec-11 10:30N 40°40' W 074°01'0 0.0
2017-Dec-11 10:00N 40°40' W 074°01'0 0.0
2017-Dec-11 09:30N 40°40' W 074°01'0 0.0
2017-Dec-11 09:00N 40°40' W 074°01'0 0.0
2017-Dec-11 08:30N 40°40' W 074°01'0 0.0
2017-Dec-11 08:00N 40°40' W 074°01'0 0.0
2017-Dec-11 07:30N 40°40' W 074°01'0 0.0
2017-Dec-11 07:00N 40°40' W 074°01'0 0.0
2017-Dec-11 06:30N 40°40' W 074°01'0 0.0
2017-Dec-11 06:00N 40°40' W 074°01'0 0.0
2017-Dec-11 05:30N 40°40' W 074°01'0 0.0
2017-Dec-11 05:00N 40°40' W 074°01'0 0.0
2017-Dec-11 04:30N 40°40' W 074°01'0 0.0
2017-Dec-11 04:00N 40°40' W 074°01'0 0.0
2017-Dec-11 03:30N 40°40' W 074°01'0 0.0
2017-Dec-11 03:00N 40°40' W 074°01'0 0.0
2017-Dec-11 02:30N 40°40' W 074°01'0 0.0
2017-Dec-11 02:00N 40°40' W 074°01'0 0.0
2017-Dec-11 01:30N 40°40' W 074°01'3 5.9
2017-Dec-11 01:00N 40°39' W 074°05'2 4.8
2017-Dec-11 00:30N 40°38' W 074°08'0 0.0
2017-Dec-11 00:00N 40°38' W 074°08'3 5.8
2017-Dec-10 23:30N 40°39' W 074°04'3 6.8
2017-Dec-10 23:00N 40°36' W 074°02'4 7.9
2017-Dec-10 22:26N 40°40' W 074°01'0 0.0
2017-Dec-10 21:59N 40°40' W 074°01'0 0.0
2017-Dec-10 21:29N 40°40' W 074°01'0 0.0
2017-Dec-10 20:59N 40°40' W 074°01'0 0.0
2017-Dec-10 20:29N 40°40' W 074°01'0 0.0
2017-Dec-10 19:59N 40°40' W 074°01'0 0.0
2017-Dec-10 19:29N 40°40' W 074°01'0 0.0
2017-Dec-10 18:59N 40°40' W 074°01'0 0.0
2017-Dec-10 18:29N 40°40' W 074°01'0 0.0
2017-Dec-10 17:59N 40°40' W 074°01'0 0.0
2017-Dec-10 17:29N 40°40' W 074°01'0 0.0
2017-Dec-10 16:59N 40°40' W 074°01'0 0.0
2017-Dec-10 16:29N 40°40' W 074°01'0 0.0
2017-Dec-10 15:59N 40°40' W 074°01'0 0.0
2017-Dec-10 15:29N 40°40' W 074°01'0 0.0
2017-Dec-10 14:59N 40°40' W 074°01'0 0.0
2017-Dec-10 14:29N 40°40' W 074°01'0 0.0
2017-Dec-10 13:59N 40°40' W 074°01'0 0.0
2017-Dec-10 13:29N 40°40' W 074°01'0 0.0
2017-Dec-10 12:59N 40°40' W 074°01'0 0.0
2017-Dec-10 12:29N 40°40' W 074°01'0 0.0
2017-Dec-10 11:59N 40°40' W 074°01'0 0.0
2017-Dec-10 11:29N 40°40' W 074°01'0 0.0
2017-Dec-10 10:59N 40°40' W 074°01'0 0.0
2017-Dec-10 10:29N 40°40' W 074°01'0 0.0
2017-Dec-10 09:59N 40°40' W 074°01'0 0.0
2017-Dec-10 09:29N 40°40' W 074°01'0 0.0
2017-Dec-10 08:56N 40°40' W 074°01'0 0.0
2017-Dec-10 08:29N 40°40' W 074°01'0 0.3
2017-Dec-10 08:01N 40°40' W 074°01'1 1.2
2017-Dec-10 07:28N 40°40' W 074°02'0 0.0
2017-Dec-10 06:58N 40°40' W 074°02'0 0.0
2017-Dec-10 06:28N 40°40' W 074°02'0 0.0
2017-Dec-10 05:58N 40°40' W 074°02'0 0.1
2017-Dec-10 05:28N 40°40' W 074°02'0 1.0
2017-Dec-10 05:00N 40°40' W 074°01'0 0.8
2017-Dec-10 04:30N 40°40' W 074°01'0 0.0
2017-Dec-10 04:00N 40°40' W 074°01'0 0.0
2017-Dec-10 03:30N 40°40' W 074°01'0 0.0
2017-Dec-10 03:00N 40°40' W 074°01'0 0.0
2017-Dec-10 02:30N 40°40' W 074°01'0 0.0
2017-Dec-10 02:00N 40°40' W 074°01'0 0.0
2017-Dec-10 01:30N 40°40' W 074°01'0 0.0
2017-Dec-10 01:00N 40°40' W 074°01'0 0.0
2017-Dec-10 00:30N 40°40' W 074°01'0 0.0
2017-Dec-10 00:00N 40°40' W 074°01'0 0.0
2017-Dec-09 23:30N 40°40' W 074°01'0 0.0
2017-Dec-09 23:00N 40°40' W 074°01'0 0.0
2017-Dec-09 22:30N 40°40' W 074°01'0 0.0
2017-Dec-09 22:00N 40°40' W 074°01'0 0.0
2017-Dec-09 21:30N 40°40' W 074°01'0 0.0
2017-Dec-09 21:00N 40°40' W 074°01'0 0.0
2017-Dec-09 20:30N 40°40' W 074°01'0 0.0
2017-Dec-09 20:00N 40°40' W 074°01'0 0.0
2017-Dec-09 19:30N 40°40' W 074°01'0 0.0
2017-Dec-09 19:00N 40°40' W 074°01'0 0.0
2017-Dec-09 18:30N 40°40' W 074°01'0 0.0
2017-Dec-09 18:00N 40°40' W 074°01'0 0.0
2017-Dec-09 17:30N 40°40' W 074°01'0 0.0
2017-Dec-09 17:00N 40°40' W 074°01'0 0.0
2017-Dec-09 16:30N 40°40' W 074°01'0 0.0
2017-Dec-09 16:00N 40°40' W 074°01'0 0.0
2017-Dec-09 15:30N 40°40' W 074°01'0 0.0
2017-Dec-09 15:00N 40°40' W 074°01'0 0.0
2017-Dec-09 14:30N 40°40' W 074°01'0 0.0
2017-Dec-09 14:00N 40°40' W 074°01'0 0.0
2017-Dec-09 13:30N 40°40' W 074°01'0 0.0
2017-Dec-09 13:00N 40°40' W 074°01'0 0.0
2017-Dec-09 12:30N 40°40' W 074°01'0 0.0
2017-Dec-09 12:00N 40°40' W 074°01'0 0.0
2017-Dec-09 11:30N 40°40' W 074°01'0 0.0
2017-Dec-09 11:00N 40°40' W 074°01'0 0.0
2017-Dec-09 10:30N 40°40' W 074°01'0 0.0
2017-Dec-09 10:00N 40°40' W 074°01'0 0.0
2017-Dec-09 09:30N 40°40' W 074°01'0 0.0
2017-Dec-09 09:00N 40°40' W 074°01'0 0.0
2017-Dec-09 08:30N 40°40' W 074°01'0 0.0
2017-Dec-09 08:00N 40°40' W 074°01'0 0.0
2017-Dec-09 07:31N 40°40' W 074°01'0 0.2
2017-Dec-09 07:01N 40°40' W 074°01'1 1.5
2017-Dec-09 06:31N 40°41' W 074°02'4 7.2
2017-Dec-09 06:01N 40°43' W 073°58'3 6.5
2017-Dec-09 05:30N 40°46' W 073°57'2 4.9
2017-Dec-09 05:00N 40°48' W 073°54'3 6.6
2017-Dec-09 04:29N 40°48' W 073°50'3 5.6
2017-Dec-09 04:00N 40°50' W 073°47'4 8.1
2017-Dec-09 03:28N 40°53' W 073°43'4 0.2
2017-Dec-08 08:03N 40°55' W 073°38'1 8.4
2017-Dec-08 07:57N 40°54' W 073°39'4 8.3
2017-Dec-08 07:30N 40°53' W 073°44'4 8.2
2017-Dec-08 07:00N 40°49' W 073°47'3 6.6
2017-Dec-08 06:30N 40°48' W 073°51'4 7.6
2017-Dec-08 06:00N 40°47' W 073°56'4 7.8
2017-Dec-08 05:30N 40°43' W 073°58'5 9.6
2017-Dec-08 05:00N 40°40' W 074°03'4 8.1
2017-Dec-08 04:30N 40°39' W 074°08'3 5.3
2017-Dec-08 04:00N 40°39' W 074°11'2 4.9
2017-Dec-08 03:30N 40°36' W 074°12'3 5.5
2017-Dec-08 02:56N 40°33' W 074°14'1 1.2
2017-Dec-08 02:29N 40°33' W 074°14'0 0.1
2017-Dec-08 01:58N 40°34' W 074°14'0 0.0
2017-Dec-08 01:27N 40°34' W 074°14'0 0.0
2017-Dec-08 00:58N 40°34' W 074°14'0 0.0
2017-Dec-08 00:30N 40°34' W 074°14'0 0.0
2017-Dec-08 00:00N 40°34' W 074°14'0 0.0
2017-Dec-07 23:30N 40°34' W 074°14'0 0.0
2017-Dec-07 22:55N 40°34' W 074°14'0 0.0
2017-Dec-07 22:23N 40°34' W 074°14'0 0.0
2017-Dec-07 21:58N 40°34' W 074°14'0 0.0
2017-Dec-07 17:42N 40°34' W 074°14'1 5.4
2017-Dec-07 17:27N 40°32' W 074°15'1 3.0
2017-Dec-07 17:00N 40°34' W 074°14'0 0.0
2017-Dec-07 16:23N 40°34' W 074°14'0 0.0
2017-Dec-07 15:54N 40°34' W 074°14'0 0.0
2017-Dec-07 13:03N 40°34' W 074°14'0 0.0
2017-Dec-07 12:59N 40°34' W 074°14'0 0.0
2017-Dec-07 12:29N 40°34' W 074°14'0 0.0
2017-Dec-07 12:00N 40°34' W 074°14'0 0.0
2017-Dec-07 11:30N 40°34' W 074°14'0 0.0
2017-Dec-07 11:00N 40°34' W 074°14'0 0.0
2017-Dec-07 10:30N 40°34' W 074°14'0 0.0
2017-Dec-07 10:00N 40°34' W 074°14'0 0.0
2017-Dec-07 09:29N 40°34' W 074°14'0 0.0
2017-Dec-07 09:00N 40°34' W 074°14'0 0.0
2017-Dec-07 08:30N 40°34' W 074°14'0 0.0
2017-Dec-07 07:58N 40°34' W 074°14'0 0.0
2017-Dec-07 07:30N 40°34' W 074°14'0 0.0
2017-Dec-07 07:00N 40°34' W 074°14'0 0.0
2017-Dec-07 06:30N 40°34' W 074°14'0 0.0
2017-Dec-07 05:59N 40°34' W 074°14'0 0.0
2017-Dec-07 05:28N 40°34' W 074°14'0 0.0
2017-Dec-07 04:58N 40°34' W 074°14'0 0.0
2017-Dec-07 04:30N 40°34' W 074°14'0 0.0
2017-Dec-07 03:59N 40°34' W 074°14'0 0.0
2017-Dec-07 03:30N 40°34' W 074°14'0 0.0
2017-Dec-07 03:00N 40°34' W 074°14'0 0.0
2017-Dec-07 02:30N 40°34' W 074°14'0 0.0
2017-Dec-07 02:00N 40°34' W 074°14'0 0.0
2017-Dec-07 01:30N 40°34' W 074°14'0 0.0
2017-Dec-07 01:00N 40°34' W 074°14'0 0.0
2017-Dec-07 00:29N 40°34' W 074°14'0 0.0
2017-Dec-07 00:00N 40°34' W 074°14'0 0.0
2017-Dec-06 23:29N 40°34' W 074°14'0 0.0
2017-Dec-06 22:53N 40°34' W 074°14'0 0.0
2017-Dec-06 22:21N 40°34' W 074°14'3 6.4
2017-Dec-06 21:55N 40°36' W 074°12'3 8.3
2017-Dec-06 21:30N 40°39' W 074°10'2 3.9
2017-Dec-06 21:00N 40°38' W 074°08'  
2017-Dec-04 10:30N 40°40' W 074°01'0 0.0
2017-Dec-04 10:00N 40°40' W 074°01'0 0.0
2017-Dec-04 09:30N 40°40' W 074°01'0 0.0
2017-Dec-04 09:00N 40°40' W 074°01'0 0.0
2017-Dec-04 08:30N 40°40' W 074°01'0 0.0
2017-Dec-04 08:00N 40°40' W 074°01'0 0.0
2017-Dec-04 07:30N 40°40' W 074°01'0 0.0
2017-Dec-04 07:00N 40°40' W 074°01'0 0.0
2017-Dec-04 06:30N 40°40' W 074°01'0 0.0
2017-Dec-04 06:01N 40°40' W 074°01'0 0.0
2017-Dec-04 05:30N 40°40' W 074°01'0 0.0
2017-Dec-04 05:00N 40°40' W 074°01'0 0.0
2017-Dec-04 04:30N 40°40' W 074°01'0 0.0
2017-Dec-04 04:00N 40°40' W 074°01'0 0.0
2017-Dec-04 03:30N 40°40' W 074°01'0 0.0
2017-Dec-04 03:00N 40°40' W 074°01'0 0.2
2017-Dec-04 02:30N 40°40' W 074°01'1 3.0
2017-Dec-04 02:00N 40°41' W 074°02'4 7.3
2017-Dec-04 01:30N 40°45' W 074°01'3 6.8
2017-Dec-04 01:00N 40°48' W 073°59'3 6.3
2017-Dec-04 00:30N 40°51' W 073°57'4 7.5
2017-Dec-03 23:59N 40°55' W 073°55'  

Dump ship's entire track history